Time;durP1;ratioP1;P1;durP2;ratioP2;P2;SDS_P1;SDS_P2;PMS_P1;PMS_P2;Temp;Humidity;BMP_temperature;BMP_pressure;BME280_temperature;BME280_humidity;BME280_pressure;Samples;Min_cycle;Max_cycle;Signal;HPM_P1;HPM_P2
2023/03/02 00:02:08;;;;;;;73.07;43.10;;;1.10;99.90;;;-0.28;100.00;97434.88;5010903;28;20947;-73
2023/03/02 00:04:39;;;;;;;84.95;46.05;;;1.10;99.90;;;-0.30;100.00;97431.66;5011183;28;20405;-73
2023/03/02 00:07:09;;;;;;;79.22;43.20;;;1.10;99.90;;;-0.28;100.00;97432.28;5011091;28;20400;-73
2023/03/02 00:09:36;;;;;;;74.57;42.75;;;1.10;99.90;;;-0.34;100.00;97435.59;5010992;28;20408;-73
2023/03/02 00:12:04;;;;;;;74.43;43.17;;;1.10;99.90;;;-0.36;100.00;97437.56;5010907;28;20404;-73
2023/03/02 00:14:31;;;;;;;68.57;40.47;;;1.00;99.90;;;-0.40;100.00;97428.53;5011038;28;20837;-73
2023/03/02 00:16:57;;;;;;;82.45;44.65;;;1.00;99.90;;;-0.43;100.00;97424.50;5011027;28;20413;-73
2023/03/02 00:19:23;;;;;;;74.78;43.60;;;0.90;99.90;;;-0.43;100.00;97427.09;5010947;28;20425;-73
2023/03/02 00:21:48;;;;;;;76.57;43.40;;;0.90;99.90;;;-0.45;100.00;97423.84;5010529;28;20409;-73
2023/03/02 00:24:15;;;;;;;79.60;44.67;;;0.90;99.90;;;-0.44;100.00;97435.06;5010915;28;20516;-73
2023/03/02 00:26:41;;;;;;;69.65;41.78;;;0.90;99.90;;;-0.42;100.00;97436.50;5010945;28;20465;-73
2023/03/02 00:29:07;;;;;;;70.10;41.75;;;0.90;99.90;;;-0.45;100.00;97430.84;5010869;28;20404;-73
2023/03/02 00:31:34;;;;;;;76.63;44.65;;;0.90;99.90;;;-0.45;100.00;97426.47;5009583;28;20405;-73
2023/03/02 00:34:00;;;;;;;69.25;41.60;;;0.90;99.90;;;-0.46;100.00;97427.47;5010834;28;20408;-73
2023/03/02 00:36:26;;;;;;;75.03;42.83;;;0.90;99.90;;;-0.48;100.00;97421.63;5009464;28;20417;-73
2023/03/02 00:38:52;;;;;;;71.15;41.83;;;0.90;99.90;;;-0.50;100.00;97422.78;5010601;28;20429;-73
2023/03/02 00:41:22;;;;;;;79.80;45.20;;;0.90;99.90;;;-0.51;100.00;97424.59;5010519;28;20769;-73
2023/03/02 00:43:49;;;;;;;84.80;48.35;;;0.90;99.90;;;-0.46;100.00;97418.88;5010599;28;20481;-73
2023/03/02 00:46:18;;;;;;;77.18;44.35;;;0.90;99.90;;;-0.47;100.00;97418.06;5010622;28;20443;-73
2023/03/02 00:48:45;;;;;;;76.53;44.28;;;0.90;99.90;;;-0.55;100.00;97418.16;5010698;28;20491;-73
2023/03/02 00:51:12;;;;;;;74.20;42.90;;;0.80;99.90;;;-0.57;100.00;97412.31;5025536;28;20420;-73
2023/03/02 00:53:38;;;;;;;81.40;45.73;;;0.80;99.90;;;-0.64;100.00;97416.63;5010376;28;20400;-73
2023/03/02 00:56:06;;;;;;;84.97;45.08;;;0.70;99.90;;;-0.64;100.00;97415.81;5010568;28;20406;-73
2023/03/02 00:58:32;;;;;;;76.68;43.28;;;0.70;99.90;;;-0.69;100.00;97410.34;5009259;28;20441;-73
2023/03/02 01:01:03;;;;;;;75.00;42.13;;;0.70;99.90;;;-0.74;100.00;97416.06;5010316;28;20815;-73
2023/03/02 01:03:28;;;;;;;79.43;45.60;;;0.70;99.90;;;-0.74;100.00;97410.06;5010345;28;20409;-73
2023/03/02 01:05:57;;;;;;;84.60;46.77;;;0.60;99.90;;;-0.73;100.00;97409.88;5010394;28;20847;-73
2023/03/02 01:08:24;;;;;;;73.77;42.27;;;0.60;99.90;;;-0.77;100.00;97410.44;5010442;28;20412;-73
2023/03/02 01:10:51;;;;;;;84.25;46.33;;;0.60;99.90;;;-0.77;100.00;97413.84;5008989;28;20424;-73
2023/03/02 01:13:17;;;;;;;73.97;43.38;;;0.60;99.90;;;-0.82;100.00;97408.34;5010122;28;20460;-73
2023/03/02 01:15:43;;;;;;;86.03;47.92;;;0.60;99.90;;;-0.82;100.00;97406.56;5009053;28;20397;-73
2023/03/02 01:18:09;;;;;;;83.30;47.20;;;0.60;99.90;;;-0.86;100.00;97400.13;5008984;28;20471;-73
2023/03/02 01:20:35;;;;;;;85.38;46.33;;;0.50;99.90;;;-0.90;100.00;97391.06;5008799;28;20424;-73
2023/03/02 01:23:02;;;;;;;83.25;45.85;;;0.50;99.90;;;-0.92;100.00;97389.66;5010029;28;20451;-73
2023/03/02 01:25:28;;;;;;;82.35;45.40;;;0.50;99.90;;;-0.94;100.00;97384.63;5010303;28;21041;-73
2023/03/02 01:27:54;;;;;;;87.00;47.05;;;0.50;99.90;;;-0.96;100.00;97383.97;5010258;28;21030;-73
2023/03/02 01:30:20;;;;;;;87.00;48.67;;;0.50;99.90;;;-0.95;100.00;97384.78;5010068;28;20898;-73
2023/03/02 01:32:46;;;;;;;86.05;46.38;;;0.40;99.90;;;-0.97;100.00;97389.34;5009912;28;20412;-73
2023/03/02 01:35:12;;;;;;;95.30;49.00;;;0.40;99.90;;;-0.93;100.00;97385.44;5010059;28;20499;-73
2023/03/02 01:37:38;;;;;;;92.97;49.45;;;0.40;99.90;;;-0.99;100.00;97384.34;5010228;28;20401;-73
2023/03/02 01:40:08;;;;;;;80.07;45.27;;;0.40;99.90;;;-0.99;100.00;97380.94;5010050;28;20430;-72
2023/03/02 01:42:38;;;;;;;100.05;51.70;;;0.40;99.90;;;-0.98;100.00;97385.97;5011615;28;20407;-72
2023/03/02 01:45:20;;;;;;;88.65;49.17;;;0.40;99.90;;;-1.02;100.00;97374.31;5013904;28;20396;-73
2023/03/02 01:47:46;;;;;;;85.95;47.30;;;0.40;99.90;;;-1.03;100.00;97379.69;5013575;28;20906;-73
2023/03/02 01:50:21;;;;;;;87.03;47.38;;;0.40;99.90;;;-1.05;100.00;97376.47;5013625;28;20401;-72
2023/03/02 01:52:48;;;;;;;88.18;47.67;;;0.40;99.90;;;-1.08;100.00;97371.63;5013385;28;20766;-73
2023/03/02 01:55:23;;;;;;;87.07;47.03;;;0.30;99.90;;;-1.09;100.00;97370.00;5013576;28;20945;-73
2023/03/02 01:57:53;;;;;;;82.40;46.67;;;0.30;99.90;;;-1.09;100.00;97368.22;5013651;28;20485;-73
2023/03/02 02:00:23;;;;;;;88.03;48.50;;;0.30;99.90;;;-1.14;100.00;97375.75;5013460;28;20420;-73
2023/03/02 02:02:50;;;;;;;81.38;45.97;;;0.30;99.90;;;-1.14;100.00;97364.56;5013221;28;20397;-73
2023/03/02 02:05:22;;;;;;;90.75;49.55;;;0.30;99.90;;;-1.14;100.00;97372.34;5013515;28;20408;-73
2023/03/02 02:07:48;;;;;;;96.57;50.67;;;0.30;99.90;;;-1.13;100.00;97361.78;5013525;28;20929;-73
2023/03/02 02:10:16;;;;;;;96.20;50.53;;;0.20;99.90;;;-1.18;100.00;97354.50;5012050;28;20404;-73
2023/03/02 02:12:42;;;;;;;97.03;51.78;;;0.30;99.90;;;-1.13;100.00;97358.38;5013148;28;20759;-73
2023/03/02 02:15:09;;;;;;;91.88;49.40;;;0.30;99.90;;;-1.15;100.00;97353.34;5013297;28;20432;-73
2023/03/02 02:17:35;;;;;;;91.65;50.65;;;0.20;99.90;;;-1.21;100.00;97351.47;5013154;28;20894;-72
2023/03/02 02:20:12;;;;;;;89.43;49.25;;;0.20;99.90;;;-1.24;100.00;97344.84;5013141;28;20444;-73
2023/03/02 02:22:52;;;;;;;97.30;51.88;;;0.20;99.90;;;-1.27;100.00;97350.38;5012906;28;20396;-73
2023/03/02 02:25:38;;;;;;;90.20;48.45;;;0.10;99.90;;;-1.32;100.00;97350.09;5013086;28;20409;-73
2023/03/02 02:28:13;;;;;;;98.88;51.80;;;0.10;99.90;;;-1.25;100.00;97337.22;5013129;28;20440;-73
2023/03/02 02:30:41;;;;;;;96.23;51.63;;;0.10;99.90;;;-1.31;100.00;97337.94;5012927;28;20405;-73
2023/03/02 02:33:12;;;;;;;94.32;51.03;;;0.10;99.90;;;-1.33;100.00;97347.69;5012639;28;21029;-73
2023/03/02 02:35:39;;;;;;;87.75;48.63;;;0.00;99.90;;;-1.36;100.00;97338.47;5048994;23;20453;-73
2023/03/02 02:38:09;;;;;;;90.57;49.22;;;0.00;99.90;;;-1.38;100.00;97337.03;5052562;28;20410;-73
2023/03/02 02:40:52;;;;;;;94.05;50.85;;;0.00;99.90;;;-1.40;100.00;97338.97;5052276;28;20460;-73
2023/03/02 02:43:22;;;;;;;88.97;48.42;;;0.00;99.90;;;-1.39;100.00;97335.41;5052247;28;20412;-73
2023/03/02 02:45:51;;;;;;;102.10;53.53;;;0.00;99.90;;;-1.39;100.00;97332.81;5037758;28;20418;-73
2023/03/02 02:48:22;;;;;;;92.00;49.65;;;0.00;99.90;;;-1.37;100.00;97334.25;5032373;28;20411;-73
2023/03/02 02:50:52;;;;;;;101.50;51.45;;;0.00;99.90;;;-1.38;100.00;97327.44;5032223;28;20734;-73
2023/03/02 02:53:23;;;;;;;92.18;48.42;;;0.00;99.90;;;-1.39;100.00;97330.22;5031484;28;20402;-72
2023/03/02 02:55:53;;;;;;;103.15;54.28;;;0.00;99.90;;;-1.40;100.00;97334.59;5032187;28;20851;-72
2023/03/02 02:58:35;;;;;;;93.70;49.45;;;0.00;99.90;;;-1.42;100.00;97331.38;5032226;28;20427;-71
2023/03/02 03:01:01;;;;;;;107.55;55.13;;;0.00;99.90;;;-1.36;100.00;97329.88;5031954;28;20426;-72
2023/03/02 03:03:31;;;;;;;98.25;51.05;;;0.00;99.90;;;-1.45;100.00;97329.16;5031849;28;20387;-72
2023/03/02 03:05:59;;;;;;;105.93;54.08;;;0.00;99.90;;;-1.46;100.00;97331.91;5032020;28;20405;-72
2023/03/02 03:08:59;;;;;;;103.35;53.75;;;-0.10;99.90;;;-1.42;100.00;97335.75;5032052;28;20809;-72
2023/03/02 03:11:29;;;;;;;97.70;52.50;;;-0.10;99.90;;;-1.47;100.00;97328.50;4970582;28;21052;-71
2023/03/02 03:14:07;;;;;;;107.40;54.97;;;-0.10;99.90;;;-1.49;100.00;97329.66;5020637;28;20919;-71
2023/03/02 03:16:35;;;;;;;104.38;53.65;;;-0.10;99.90;;;-1.53;100.00;97323.22;5031933;28;20396;-72
2023/03/02 03:19:10;;;;;;;105.57;52.60;;;-0.10;99.90;;;-1.54;100.00;97324.19;5031702;28;20418;-72
2023/03/02 03:21:36;;;;;;;106.70;55.47;;;-0.10;99.90;;;-1.57;100.00;97320.16;5031542;28;20872;-72
2023/03/02 03:24:02;;;;;;;109.23;54.03;;;-0.20;99.90;;;-1.52;100.00;97314.44;5031690;28;20437;-72
2023/03/02 03:26:28;;;;;;;97.20;51.40;;;-0.20;99.90;;;-1.59;100.00;97309.16;5031679;28;20399;-72
2023/03/02 03:28:56;;;;;;;109.22;54.28;;;-0.20;99.90;;;-1.54;100.00;97314.63;5031587;28;20399;-72
2023/03/02 03:31:24;;;;;;;101.10;52.60;;;-0.20;99.90;;;-1.57;100.00;97313.19;5031432;28;20411;-72
2023/03/02 03:33:50;;;;;;;99.68;50.05;;;-0.20;99.90;;;-1.67;100.00;97306.63;5031367;28;20493;-71
2023/03/02 03:36:16;;;;;;;106.82;53.65;;;-0.20;99.90;;;-1.65;100.00;97315.03;5031310;28;20837;-72
2023/03/02 03:38:43;;;;;;;112.15;56.38;;;-0.30;99.90;;;-1.62;100.00;97312.91;5031393;28;20415;-71
2023/03/02 03:41:09;;;;;;;98.63;50.78;;;-0.20;99.90;;;-1.66;100.00;97318.63;5031152;28;20415;-72
2023/03/02 03:43:35;;;;;;;105.03;54.72;;;-0.30;99.90;;;-1.65;100.00;97322.81;5031170;28;20400;-72
2023/03/02 03:46:01;;;;;;;100.93;52.77;;;-0.30;99.90;;;-1.66;100.00;97319.44;5031183;28;20447;-72
2023/03/02 03:48:28;;;;;;;105.40;53.72;;;-0.30;99.90;;;-1.71;100.00;97320.94;5031235;28;20403;-72
2023/03/02 03:50:54;;;;;;;92.13;50.23;;;-0.30;99.90;;;-1.75;100.00;97317.91;5031178;28;20393;-71
2023/03/02 03:53:20;;;;;;;96.28;51.17;;;-0.30;99.90;;;-1.75;100.00;97320.50;5031071;28;20403;-71
2023/03/02 03:55:46;;;;;;;97.23;50.20;;;-0.30;99.90;;;-1.77;100.00;97324.22;5031046;28;20915;-72
2023/03/02 03:58:12;;;;;;;104.93;55.40;;;-0.30;99.90;;;-1.74;100.00;97323.88;5031085;28;20403;-72
2023/03/02 04:00:38;;;;;;;111.40;56.03;;;-0.30;99.90;;;-1.73;100.00;97326.28;5030996;28;20446;-71
2023/03/02 04:03:04;;;;;;;102.22;52.90;;;-0.30;99.90;;;-1.75;100.00;97323.09;5012828;28;20439;-73
2023/03/02 04:05:31;;;;;;;108.50;55.33;;;-0.30;99.90;;;-1.74;100.00;97334.28;5030750;28;20501;-71
2023/03/02 04:08:00;;;;;;;111.43;55.60;;;-0.30;99.90;;;-1.74;100.00;97329.88;5030858;28;20405;-72
2023/03/02 04:10:27;;;;;;;106.25;54.67;;;-0.30;99.90;;;-1.78;100.00;97327.81;5030800;28;20395;-73
2023/03/02 04:12:53;;;;;;;111.70;55.58;;;-0.40;99.90;;;-1.79;100.00;97324.41;5030522;28;20399;-72
2023/03/02 04:15:19;;;;;;;111.95;55.97;;;-0.40;99.90;;;-1.76;100.00;97333.63;5030447;28;20903;-72
2023/03/02 04:17:45;;;;;;;117.22;57.15;;;-0.30;99.90;;;-1.73;100.00;97336.66;5030016;28;20426;-73
2023/03/02 04:20:15;;;;;;;105.97;53.92;;;-0.30;99.90;;;-1.73;100.00;97341.06;5030356;28;20442;-72
2023/03/02 04:22:45;;;;;;;104.57;53.55;;;-0.40;99.90;;;-1.83;100.00;97337.91;5012493;28;20800;-72
2023/03/02 04:25:12;;;;;;;111.20;54.17;;;-0.40;99.90;;;-1.83;100.00;97343.09;5030350;28;20406;-72
2023/03/02 04:27:39;;;;;;;97.75;50.60;;;-0.40;99.90;;;-1.88;100.00;97342.81;5030359;28;20415;-72
2023/03/02 04:30:07;;;;;;;107.38;54.28;;;-0.40;99.90;;;-1.88;100.00;97343.59;5030161;28;20479;-72
2023/03/02 04:32:33;;;;;;;108.37;53.70;;;-0.40;99.90;;;-1.89;100.00;97342.00;5029746;28;20403;-72
2023/03/02 04:34:59;;;;;;;96.85;49.47;;;-0.50;99.90;;;-1.91;100.00;97336.19;5029988;28;20832;-72
2023/03/02 04:37:25;;;;;;;115.33;56.20;;;-0.50;99.90;;;-1.85;100.00;97332.06;5030420;28;20427;-72
2023/03/02 04:39:52;;;;;;;108.90;54.90;;;-0.40;99.90;;;-1.89;100.00;97341.19;5029406;28;20458;-72
2023/03/02 04:42:19;;;;;;;95.65;49.38;;;-0.50;99.90;;;-1.96;100.00;97341.09;5029902;28;20411;-72
2023/03/02 04:44:46;;;;;;;125.07;59.15;;;-0.50;99.90;;;-1.92;100.00;97333.75;5029950;28;20413;-72
2023/03/02 04:47:12;;;;;;;116.78;56.15;;;-0.50;99.90;;;-1.97;100.00;97337.69;5029732;28;20411;-72
2023/03/02 04:49:38;;;;;;;111.47;53.53;;;-0.50;99.90;;;-1.97;100.00;97329.91;5029324;28;20403;-72
2023/03/02 04:52:04;;;;;;;114.18;55.83;;;-0.50;99.90;;;-1.96;100.00;97335.91;5028979;28;20552;-72
2023/03/02 04:54:31;;;;;;;110.45;55.88;;;-0.50;99.90;;;-1.97;100.00;97335.09;5029609;28;20427;-72
2023/03/02 04:56:58;;;;;;;113.32;54.80;;;-0.50;99.90;;;-1.99;100.00;97334.44;5029479;28;20415;-72
2023/03/02 04:59:27;;;;;;;126.85;61.53;;;-0.50;99.90;;;-1.97;100.00;97332.50;5027947;28;20816;-72
2023/03/02 05:01:55;;;;;;;110.25;55.05;;;-0.50;99.90;;;-2.00;100.00;97338.03;5029380;28;20426;-72
2023/03/02 05:04:21;;;;;;;122.93;59.97;;;-0.50;99.90;;;-1.97;100.00;97331.69;5029689;28;20409;-72
2023/03/02 05:06:47;;;;;;;113.53;56.30;;;-0.50;99.90;;;-2.00;100.00;97338.03;5029970;28;20430;-74
2023/03/02 05:09:14;;;;;;;115.40;58.42;;;-0.60;99.90;;;-2.01;100.00;97333.00;5029909;28;20410;-72
2023/03/02 05:11:40;;;;;;;122.13;59.20;;;-0.60;99.90;;;-1.99;100.00;97331.06;5029442;28;20402;-72
2023/03/02 05:14:11;;;;;;;114.63;55.47;;;-0.50;99.90;;;-1.98;100.00;97338.66;5029745;28;20410;-72
2023/03/02 05:16:39;;;;;;;117.05;57.33;;;-0.60;99.90;;;-1.97;100.00;97334.28;5028711;28;20885;-72
2023/03/02 05:19:08;;;;;;;110.03;54.50;;;-0.50;99.90;;;-1.93;100.00;97334.72;5032856;28;20479;-72
2023/03/02 05:21:34;;;;;;;117.85;57.97;;;-0.50;99.90;;;-1.86;100.00;97333.84;5032079;28;20506;-72
2023/03/02 05:24:02;;;;;;;128.82;63.22;;;-0.50;99.90;;;-1.77;100.00;97330.22;5032887;28;20498;-73
2023/03/02 05:26:28;;;;;;;111.45;55.17;;;-0.40;99.90;;;-1.71;100.00;97328.72;5032944;28;20407;-73
2023/03/02 05:28:53;;;;;;;127.55;61.75;;;-0.30;99.90;;;-1.63;100.00;97326.84;5033064;28;20490;-74
2023/03/02 05:31:26;;;;;;;129.57;60.38;;;-0.20;99.90;;;-1.56;100.00;97334.75;5033078;28;20493;-73
2023/03/02 05:33:52;;;;;;;111.78;55.15;;;-0.20;99.90;;;-1.51;100.00;97332.44;5033098;28;20403;-73
2023/03/02 05:36:18;;;;;;;125.13;61.00;;;-0.10;99.90;;;-1.44;100.00;97335.16;5032538;28;20498;-73
2023/03/02 05:38:44;;;;;;;118.40;57.80;;;-0.10;99.90;;;-1.40;100.00;97339.78;5032628;28;20403;-73
2023/03/02 05:41:10;;;;;;;118.60;57.20;;;0.00;99.90;;;-1.36;100.00;97330.69;5032921;28;20945;-72
2023/03/02 05:43:36;;;;;;;101.43;52.78;;;0.00;99.90;;;-1.33;100.00;97332.91;5032939;28;20478;-73
2023/03/02 05:46:02;;;;;;;105.28;54.95;;;0.10;99.90;;;-1.28;100.00;97330.56;5032820;28;20455;-73
2023/03/02 05:48:31;;;;;;;108.88;55.58;;;0.10;99.90;;;-1.25;100.00;97334.63;5032091;28;20410;-73
2023/03/02 05:50:57;;;;;;;103.80;53.63;;;0.10;99.90;;;-1.24;100.00;97331.03;5031080;28;20923;-72
2023/03/02 05:53:23;;;;;;;95.07;52.20;;;0.10;99.90;;;-1.22;100.00;97337.69;5032751;28;20410;-71
2023/03/02 05:55:50;;;;;;;103.30;52.92;;;0.10;99.90;;;-1.18;100.00;97333.72;5033028;28;20541;-72
2023/03/02 05:58:18;;;;;;;98.22;52.72;;;0.20;99.90;;;-1.11;100.00;97333.00;5033082;28;20883;-72
2023/03/02 06:00:44;;;;;;;96.27;51.03;;;0.30;99.90;;;-1.04;100.00;97339.09;5033004;28;20419;-72
2023/03/02 06:03:10;;;;;;;104.97;53.83;;;0.30;99.90;;;-0.98;100.00;97339.22;5032538;28;21008;-72
2023/03/02 06:05:38;;;;;;;99.55;54.20;;;0.40;99.90;;;-0.96;100.00;97342.41;5032721;28;20465;-72
2023/03/02 06:08:04;;;;;;;105.15;54.83;;;0.40;99.90;;;-0.93;100.00;97344.66;5033001;28;20414;-71
2023/03/02 06:10:31;;;;;;;92.63;50.78;;;0.40;99.90;;;-0.90;100.00;97343.47;5032917;28;20394;-71
2023/03/02 06:12:57;;;;;;;103.22;54.50;;;0.40;99.90;;;-0.87;100.00;97351.75;5032729;28;20409;-71
2023/03/02 06:15:23;;;;;;;97.63;53.22;;;0.50;99.90;;;-0.83;100.00;97352.97;5032793;28;20403;-71
2023/03/02 06:17:49;;;;;;;100.63;54.58;;;0.50;99.90;;;-0.79;100.00;97361.22;5032824;28;20410;-71
2023/03/02 06:20:17;;;;;;;94.18;52.00;;;0.50;99.90;;;-0.77;100.00;97354.06;5032795;28;20510;-72
2023/03/02 06:22:45;;;;;;;93.55;49.35;;;0.60;99.90;;;-0.73;100.00;97354.50;5032478;28;20472;-71
2023/03/02 06:25:14;;;;;;;85.68;46.92;;;0.60;99.90;;;-0.70;100.00;97362.75;5031199;28;20848;-72
2023/03/02 06:27:42;;;;;;;90.32;49.67;;;0.60;99.90;;;-0.67;100.00;97356.38;5032229;28;20914;-72
2023/03/02 06:30:15;;;;;;;83.93;48.50;;;0.60;99.90;;;-0.64;100.00;97356.03;5030861;28;21584;-72
2023/03/02 06:32:41;;;;;;;88.50;47.88;;;0.70;99.90;;;-0.59;100.00;97359.69;5032346;28;20411;-72
2023/03/02 06:35:09;;;;;;;87.32;46.95;;;0.70;99.90;;;-0.55;100.00;97362.75;5032363;28;21092;-72
2023/03/02 06:37:35;;;;;;;90.65;49.10;;;0.80;99.90;;;-0.51;100.00;97369.19;5032697;28;20491;-72
2023/03/02 06:40:08;;;;;;;95.22;49.05;;;0.80;99.90;;;-0.46;100.00;97362.47;5032204;28;20502;-72
2023/03/02 06:42:35;;;;;;;89.47;48.03;;;0.90;99.90;;;-0.40;100.00;97372.13;5029394;28;20409;-72
2023/03/02 06:45:01;;;;;;;89.40;46.92;;;0.90;99.90;;;-0.33;100.00;97367.00;5032439;28;20415;-72
2023/03/02 06:47:27;;;;;;;91.00;47.25;;;1.00;99.90;;;-0.27;100.00;97381.06;5032469;28;20426;-73
2023/03/02 06:49:53;;;;;;;86.87;46.37;;;1.00;99.90;;;-0.22;100.00;97368.31;5032301;28;20407;-72
2023/03/02 06:52:18;;;;;;;87.70;46.53;;;1.10;99.90;;;-0.18;100.00;97374.78;5032021;28;20446;-72
2023/03/02 06:54:44;;;;;;;86.18;47.55;;;1.10;99.90;;;-0.15;100.00;97375.19;5031724;28;20411;-72
2023/03/02 06:57:11;;;;;;;88.80;46.77;;;1.10;99.90;;;-0.11;100.00;97378.25;5031783;28;20446;-72
2023/03/02 06:59:37;;;;;;;92.38;48.90;;;1.20;99.90;;;-0.10;100.00;97378.06;5030946;28;20419;-73
2023/03/02 07:02:03;;;;;;;86.80;49.40;;;1.20;99.90;;;-0.12;100.00;97387.03;5031274;28;20908;-73
2023/03/02 07:04:29;;;;;;;83.82;45.95;;;1.20;99.90;;;-0.10;100.00;97379.88;5031571;28;20449;-72
2023/03/02 07:07:19;;;;;;;81.70;45.13;;;1.20;99.90;;;-0.05;100.00;97393.13;5031031;28;20409;-72
2023/03/02 07:09:44;;;;;;;82.60;44.20;;;1.20;99.90;;;-0.01;100.00;97392.59;5013609;28;20772;-73
2023/03/02 07:12:12;;;;;;;82.95;44.75;;;1.30;99.90;;;0.04;100.00;97393.81;5031063;28;20435;-73
2023/03/02 07:14:38;;;;;;;89.38;47.95;;;1.30;99.90;;;0.08;100.00;97392.44;5029202;28;20407;-72
2023/03/02 07:17:04;;;;;;;88.85;47.30;;;1.40;99.90;;;0.13;100.00;97390.94;5031834;28;20407;-72
2023/03/02 07:19:30;;;;;;;89.85;48.97;;;1.40;99.90;;;0.15;100.00;97388.91;5031634;28;20411;-72
2023/03/02 07:21:55;;;;;;;82.40;43.55;;;1.50;99.90;;;0.20;100.00;97391.78;5031444;28;20538;-72
2023/03/02 07:24:21;;;;;;;87.40;47.75;;;1.50;99.90;;;0.20;100.00;97390.97;5031554;28;20447;-72
2023/03/02 07:26:48;;;;;;;81.40;44.70;;;1.50;99.90;;;0.22;100.00;97394.22;5031615;28;20435;-72
2023/03/02 07:29:15;;;;;;;77.75;42.15;;;1.50;99.90;;;0.26;100.00;97392.84;5031597;28;20421;-72
2023/03/02 07:31:43;;;;;;;74.63;41.30;;;1.50;99.90;;;0.33;100.00;97393.72;5031300;28;20457;-72
2023/03/02 07:34:08;;;;;;;83.50;44.08;;;1.60;99.90;;;0.36;100.00;97401.97;5031418;28;20449;-71
2023/03/02 07:36:34;;;;;;;88.37;45.93;;;1.60;99.90;;;0.43;100.00;97403.81;5031463;28;20445;-71
2023/03/02 07:39:01;;;;;;;82.53;45.25;;;1.70;99.90;;;0.46;100.00;97406.84;5031498;28;20410;-71
2023/03/02 07:41:27;;;;;;;81.13;45.38;;;1.70;99.90;;;0.46;100.00;97395.63;5030640;28;20416;-71
2023/03/02 07:43:54;;;;;;;82.22;43.70;;;1.70;99.90;;;0.52;100.00;97402.72;5031314;28;20469;-71
2023/03/02 07:46:21;;;;;;;81.53;43.90;;;1.70;99.90;;;0.54;100.00;97398.91;5031199;28;20403;-71
2023/03/02 07:48:47;;;;;;;88.23;45.67;;;1.80;99.90;;;0.61;100.00;97409.38;5031155;28;20405;-71
2023/03/02 07:51:13;;;;;;;83.80;44.55;;;1.90;99.90;;;0.66;100.00;97401.81;5031087;28;20454;-72
2023/03/02 07:53:39;;;;;;;90.25;45.53;;;1.90;99.90;;;0.73;100.00;97408.69;5030823;28;20419;-72
2023/03/02 07:56:07;;;;;;;80.15;43.50;;;2.00;99.90;;;0.80;100.00;97413.16;5030399;28;20403;-72
2023/03/02 07:58:33;;;;;;;77.47;42.42;;;2.00;99.90;;;0.89;100.00;97409.41;5030472;28;20423;-71
2023/03/02 08:00:59;;;;;;;75.87;41.27;;;2.10;99.90;;;0.96;100.00;97407.66;5030124;28;20924;-71
2023/03/02 08:03:26;;;;;;;79.20;42.22;;;2.20;99.90;;;1.02;100.00;97405.09;5028922;28;20488;-72
2023/03/02 08:05:52;;;;;;;78.15;42.20;;;2.30;99.90;;;1.14;100.00;97410.59;5031721;28;20427;-71
2023/03/02 08:08:18;;;;;;;77.70;43.90;;;2.40;99.90;;;1.19;100.00;97412.63;5030297;28;20421;-72
2023/03/02 08:10:44;;;;;;;72.10;41.63;;;2.40;99.90;;;1.26;100.00;97411.69;5034333;28;21005;-72
2023/03/02 08:13:10;;;;;;;68.50;39.38;;;2.50;99.90;;;1.34;100.00;97415.94;5029593;28;20418;-72
2023/03/02 08:15:36;;;;;;;70.80;40.22;;;2.50;99.90;;;1.41;100.00;97419.38;5030257;28;20438;-72
2023/03/02 08:18:02;;;;;;;71.07;41.20;;;2.60;99.90;;;1.47;100.00;97422.03;5030704;28;20450;-72
2023/03/02 08:20:29;;;;;;;65.22;38.65;;;2.70;99.90;;;1.53;100.00;97423.88;5030618;28;20414;-72
2023/03/02 08:22:55;;;;;;;70.60;40.90;;;2.70;99.90;;;1.56;100.00;97420.06;5030312;28;20403;-73
2023/03/02 08:25:21;;;;;;;65.18;37.35;;;2.80;99.90;;;1.62;100.00;97421.91;5045732;28;20959;-73
2023/03/02 08:27:47;;;;;;;66.18;38.90;;;2.80;99.90;;;1.67;100.00;97424.72;5043961;28;20418;-73
2023/03/02 08:30:14;;;;;;;67.80;39.63;;;2.80;99.90;;;1.73;100.00;97437.00;5030167;28;20410;-73
2023/03/02 08:32:40;;;;;;;66.85;38.65;;;2.90;99.90;;;1.78;100.00;97426.00;5030006;28;20908;-73
2023/03/02 08:35:07;;;;;;;64.90;38.33;;;3.00;99.90;;;1.83;100.00;97418.38;5039506;22;20446;-73
2023/03/02 08:37:34;;;;;;;66.53;37.60;;;3.00;99.90;;;1.89;100.00;97423.63;5010886;28;20445;-73
2023/03/02 08:40:00;;;;;;;79.05;39.80;;;3.10;99.90;;;1.94;100.00;97410.81;5010662;28;20437;-73
2023/03/02 08:42:26;;;;;;;77.50;43.00;;;3.10;99.90;;;1.98;100.00;97416.44;5009043;28;20790;-73
2023/03/02 08:44:52;;;;;;;67.68;40.88;;;3.20;99.90;;;2.03;100.00;97416.63;5000997;28;20435;-73
2023/03/02 08:47:18;;;;;;;68.73;40.77;;;3.20;99.90;;;2.07;100.00;97404.00;4995664;28;20419;-73
2023/03/02 08:49:43;;;;;;;63.38;37.03;;;3.20;99.90;;;2.18;100.00;97414.66;5014481;28;20439;-73
2023/03/02 08:52:09;;;;;;;59.13;35.83;;;3.40;99.90;;;2.32;100.00;97413.72;4993554;28;20403;-73
2023/03/02 08:54:39;;;;;;;68.72;37.83;;;3.50;99.90;;;2.44;100.00;97410.50;4993145;28;20892;-73
2023/03/02 08:57:10;;;;;;;64.70;36.92;;;3.60;99.90;;;2.49;100.00;97406.28;5004351;28;20893;-73
2023/03/02 08:59:36;;;;;;;66.22;38.45;;;3.60;99.90;;;2.57;100.00;97398.25;5000682;28;20412;-71
2023/03/02 09:02:02;;;;;;;58.72;35.05;;;3.70;99.90;;;2.66;100.00;97398.88;4996191;28;20411;-73
2023/03/02 09:04:28;;;;;;;54.50;33.50;;;3.80;99.90;;;2.78;100.00;97396.47;5006784;28;20496;-73
2023/03/02 09:06:53;;;;;;;60.08;33.65;;;3.80;99.90;;;2.89;100.00;97393.25;4976687;28;20497;-73
2023/03/02 09:09:19;;;;;;;67.43;38.20;;;4.00;99.90;;;3.03;100.00;97400.88;4998436;28;20413;-73
2023/03/02 09:11:47;;;;;;;65.85;37.17;;;4.20;99.90;;;3.08;100.00;97393.22;4998546;28;20450;-73
2023/03/02 09:14:12;;;;;;;58.10;34.35;;;4.20;99.90;;;3.07;100.00;97402.09;4991258;28;20450;-72
2023/03/02 09:16:38;;;;;;;57.20;33.38;;;4.30;99.90;;;3.17;100.00;97400.84;4994378;28;20409;-74
2023/03/02 09:19:05;;;;;;;54.90;32.33;;;4.30;99.90;;;3.21;100.00;97400.25;4994512;28;20441;-73
2023/03/02 09:21:31;;;;;;;52.38;31.80;;;4.30;99.90;;;3.31;100.00;97391.97;4993375;28;20938;-73
2023/03/02 09:23:57;;;;;;;56.80;34.47;;;4.40;99.90;;;3.43;100.00;97390.34;4992990;28;20406;-73
2023/03/02 09:26:23;;;;;;;56.72;33.10;;;4.50;99.90;;;3.54;100.00;97396.75;4992281;28;20856;-74
2023/03/02 09:28:50;;;;;;;53.53;30.77;;;4.60;99.90;;;3.61;100.00;97389.72;4992160;28;20497;-74
2023/03/02 09:31:16;;;;;;;49.95;29.92;;;4.70;99.90;;;3.74;100.00;97392.28;4991969;28;20406;-73
2023/03/02 09:33:42;;;;;;;49.90;30.70;;;4.80;99.90;;;3.85;100.00;97394.22;4990558;28;20803;-73
2023/03/02 09:36:12;;;;;;;50.03;30.45;;;4.90;99.90;;;4.04;100.00;97395.16;4991667;28;20424;-73
2023/03/02 09:38:38;;;;;;;49.23;30.60;;;5.10;99.90;;;4.07;100.00;97392.09;4992096;28;20488;-73
2023/03/02 09:41:44;;;;;;;43.75;28.40;;;5.20;99.90;;;4.18;100.00;97401.94;4990592;28;20975;-73
2023/03/02 09:44:34;;;;;;;47.42;28.70;;;5.20;99.90;;;4.32;100.00;97395.59;4994316;28;20768;-73
2023/03/02 09:47:04;;;;;;;50.95;29.63;;;5.40;99.90;;;4.41;100.00;97404.03;4990580;28;20422;-73
2023/03/02 09:49:49;;;;;;;46.60;27.15;;;5.40;99.90;;;4.58;100.00;97395.44;4991877;28;20402;-73
2023/03/02 09:52:27;;;;;;;42.45;27.00;;;5.60;99.90;;;4.62;100.00;97401.06;4988817;28;20414;-72
2023/03/02 09:54:53;;;;;;;45.60;26.85;;;5.70;99.90;;;4.61;100.00;97407.31;4990277;28;20407;-73
2023/03/02 09:57:24;;;;;;;42.75;24.95;;;5.60;99.90;;;4.64;100.00;97412.94;5004842;28;20407;-73
2023/03/02 09:59:57;;;;;;;44.15;25.55;;;5.70;99.90;;;4.68;100.00;97406.25;4999657;28;20393;-73
2023/03/02 10:02:28;;;;;;;43.83;24.58;;;5.70;99.90;;;4.76;100.00;97401.75;4994171;28;20809;-73
2023/03/02 10:04:56;;;;;;;54.13;29.33;;;5.70;99.90;;;4.71;100.00;97412.91;5005203;28;20740;-73
2023/03/02 10:07:27;;;;;;;45.03;26.25;;;5.70;99.90;;;4.73;100.00;97404.81;5013377;28;20401;-72
2023/03/02 10:09:55;;;;;;;49.55;28.42;;;5.80;99.90;;;4.71;100.00;97412.91;5005184;28;20897;-73